createdAt,value
2018-09-20T00:00:36.912Z,99.90
2018-09-20T00:03:05.393Z,99.90
2018-09-20T00:05:33.873Z,99.90
2018-09-20T00:08:02.351Z,99.90
2018-09-20T00:10:30.837Z,99.90
2018-09-20T00:12:59.299Z,99.90
2018-09-20T00:15:27.796Z,99.90
2018-09-20T00:17:56.265Z,99.90
2018-09-20T00:20:24.777Z,99.90
2018-09-20T00:22:53.273Z,99.90
2018-09-20T00:25:21.725Z,99.90
2018-09-20T00:27:50.248Z,99.90
2018-09-20T00:30:18.706Z,99.90
2018-09-20T00:32:47.184Z,99.90
2018-09-20T00:35:15.633Z,99.90
2018-09-20T00:37:44.158Z,99.90
2018-09-20T00:40:12.617Z,99.90
2018-09-20T00:42:41.105Z,99.90
2018-09-20T00:45:09.581Z,99.90
2018-09-20T00:47:38.066Z,99.90
2018-09-20T00:50:06.794Z,99.90
2018-09-20T00:52:35.237Z,99.90
2018-09-20T00:55:03.801Z,99.90
2018-09-20T00:57:32.288Z,99.90
2018-09-20T01:00:00.790Z,99.90
2018-09-20T01:02:29.265Z,99.90
2018-09-20T01:04:57.973Z,99.90
2018-09-20T01:07:26.428Z,99.90
2018-09-20T01:09:54.918Z,99.90
2018-09-20T01:12:23.465Z,99.90
2018-09-20T01:14:51.969Z,99.90
2018-09-20T01:17:20.469Z,99.90
2018-09-20T01:19:48.934Z,99.90
2018-09-20T01:22:17.594Z,99.90
2018-09-20T01:24:46.116Z,99.90
2018-09-20T01:27:14.665Z,99.90
2018-09-20T01:29:43.153Z,99.90
2018-09-20T01:32:11.877Z,99.90
2018-09-20T01:34:40.332Z,99.90
2018-09-20T01:37:08.822Z,99.90
2018-09-20T01:39:37.291Z,99.90
2018-09-20T01:42:05.844Z,99.90
2018-09-20T01:44:34.266Z,99.90
2018-09-20T01:47:02.744Z,99.90
2018-09-20T01:50:55.682Z,99.90
2018-09-20T01:53:24.215Z,99.90
2018-09-20T01:55:52.670Z,99.90
2018-09-20T01:58:21.138Z,99.90
2018-09-20T02:00:49.645Z,99.90
2018-09-20T02:03:18.117Z,99.90
2018-09-20T02:05:46.609Z,99.90
2018-09-20T02:08:15.116Z,99.90
2018-09-20T02:10:43.572Z,99.90
2018-09-20T02:13:12.033Z,99.90
2018-09-20T02:15:40.528Z,99.90
2018-09-20T02:18:08.994Z,99.90
2018-09-20T02:20:37.497Z,99.90
2018-09-20T02:23:05.968Z,99.90
2018-09-20T02:25:34.466Z,99.90
2018-09-20T02:28:02.921Z,99.90
2018-09-20T02:30:31.423Z,99.90
2018-09-20T02:32:59.902Z,99.90
2018-09-20T02:35:28.405Z,99.90
2018-09-20T02:37:56.858Z,99.90
2018-09-20T02:40:25.392Z,99.90
2018-09-20T02:42:53.809Z,99.90
2018-09-20T02:45:22.338Z,99.90
2018-09-20T02:47:50.841Z,99.90
2018-09-20T02:50:19.305Z,99.90
2018-09-20T02:52:47.768Z,99.90
2018-09-20T02:55:16.283Z,99.90
2018-09-20T02:57:44.833Z,99.90
2018-09-20T03:00:13.297Z,99.90
2018-09-20T03:02:41.812Z,99.90
2018-09-20T03:05:10.237Z,99.90
2018-09-20T03:07:38.753Z,99.90
2018-09-20T03:10:07.285Z,99.90
2018-09-20T03:12:35.716Z,99.90
2018-09-20T03:15:04.596Z,99.90
2018-09-20T03:17:33.133Z,99.90
2018-09-20T03:20:02.374Z,99.90
2018-09-20T03:22:30.880Z,99.90
2018-09-20T03:24:59.657Z,99.90
2018-09-20T03:27:28.132Z,99.90
2018-09-20T03:29:56.615Z,99.90
2018-09-20T03:32:26.113Z,99.90
2018-09-20T03:34:54.603Z,99.90
2018-09-20T03:37:23.068Z,99.90
2018-09-20T03:39:51.579Z,99.90
2018-09-20T03:42:20.047Z,99.90
2018-09-20T03:44:48.542Z,99.90
2018-09-20T03:47:17.062Z,99.90
2018-09-20T03:49:45.505Z,99.90
2018-09-20T03:52:13.979Z,99.90
2018-09-20T03:54:42.451Z,99.90
2018-09-20T03:57:10.949Z,99.90
2018-09-20T03:59:39.405Z,99.90
2018-09-20T04:02:07.926Z,99.90
2018-09-20T04:04:36.385Z,99.90
2018-09-20T04:07:05.094Z,99.90
2018-09-20T04:09:33.592Z,99.90
2018-09-20T04:12:02.048Z,99.90
2018-09-20T04:22:00.681Z,99.90
2018-09-20T04:24:29.148Z,99.90
2018-09-20T04:26:57.642Z,99.90
2018-09-20T04:29:26.134Z,99.90
2018-09-20T04:31:54.671Z,99.90
2018-09-20T04:34:23.102Z,99.90
2018-09-20T04:36:51.977Z,99.90
2018-09-20T04:39:20.469Z,99.90
2018-09-20T04:41:48.948Z,99.90
2018-09-20T04:44:17.425Z,99.90
2018-09-20T04:46:45.914Z,99.90
2018-09-20T04:49:14.416Z,99.90
2018-09-20T04:51:42.881Z,99.90
2018-09-20T04:54:11.350Z,99.90
2018-09-20T04:56:39.869Z,99.90
2018-09-20T04:59:08.324Z,99.90
2018-09-20T05:01:36.817Z,99.90
2018-09-20T05:04:05.277Z,99.90
2018-09-20T05:06:33.757Z,99.90
2018-09-20T05:09:02.279Z,99.90
2018-09-20T05:11:30.733Z,99.90
2018-09-20T05:13:59.225Z,99.90
2018-09-20T05:16:27.696Z,99.90
2018-09-20T05:18:56.183Z,99.90
2018-09-20T05:21:24.634Z,99.90
2018-09-20T05:23:53.457Z,99.90
2018-09-20T05:26:21.956Z,99.90
2018-09-20T05:28:50.410Z,99.90
2018-09-20T05:31:18.973Z,99.90
2018-09-20T05:33:47.409Z,99.90
2018-09-20T05:36:15.880Z,99.90
2018-09-20T05:38:44.323Z,99.90
2018-09-20T05:41:12.801Z,99.90
2018-09-20T05:43:41.400Z,99.90
2018-09-20T05:46:09.797Z,99.90
2018-09-20T05:48:38.277Z,99.90
2018-09-20T05:51:06.783Z,99.90
2018-09-20T05:53:35.294Z,99.90
2018-09-20T05:56:03.793Z,99.90
2018-09-20T05:58:32.360Z,99.90
2018-09-20T06:01:00.889Z,99.90
2018-09-20T06:03:29.381Z,99.90
2018-09-20T06:05:58.214Z,99.90
2018-09-20T06:08:26.650Z,99.90
2018-09-20T06:10:55.173Z,99.90
2018-09-20T06:13:23.977Z,99.90
2018-09-20T06:15:52.505Z,99.90
2018-09-20T06:18:21.035Z,99.90
2018-09-20T06:20:49.679Z,99.90
2018-09-20T06:23:18.141Z,99.90
2018-09-20T06:25:46.607Z,99.90
2018-09-20T06:28:15.114Z,99.90
2018-09-20T06:30:43.594Z,99.90
2018-09-20T06:33:12.186Z,99.90
2018-09-20T06:35:40.688Z,99.90
2018-09-20T06:38:09.140Z,99.90
2018-09-20T06:40:37.638Z,99.90
2018-09-20T06:43:06.204Z,99.90
2018-09-20T06:45:34.649Z,99.90
2018-09-20T06:48:03.262Z,99.90
2018-09-20T06:50:31.806Z,99.90
2018-09-20T06:53:00.256Z,99.90
2018-09-20T06:55:28.705Z,99.90
2018-09-20T06:57:57.335Z,99.90
2018-09-20T07:00:25.785Z,99.90
2018-09-20T07:02:54.286Z,99.90
2018-09-20T07:05:22.764Z,99.90
2018-09-20T07:07:51.236Z,99.90
2018-09-20T07:10:19.705Z,99.90
2018-09-20T07:12:48.180Z,99.90
2018-09-20T07:15:16.731Z,99.90
2018-09-20T07:17:45.401Z,99.90
2018-09-20T07:20:13.860Z,99.90
2018-09-20T07:22:42.338Z,99.90
2018-09-20T07:25:10.862Z,99.90
2018-09-20T07:27:39.273Z,99.90
2018-09-20T07:30:07.849Z,99.90
2018-09-20T07:32:36.404Z,99.90
2018-09-20T07:35:05.245Z,99.90
2018-09-20T07:37:33.724Z,99.90
2018-09-20T07:40:02.262Z,99.90
2018-09-20T07:42:30.842Z,99.90
2018-09-20T07:44:59.433Z,99.90
2018-09-20T07:47:27.976Z,99.90
2018-09-20T07:49:56.421Z,99.90
2018-09-20T07:52:25.259Z,99.90
2018-09-20T07:54:53.703Z,99.90
2018-09-20T07:57:22.352Z,99.90
2018-09-20T07:59:50.873Z,99.90
2018-09-20T08:02:19.358Z,99.90
2018-09-20T08:04:47.860Z,99.90
2018-09-20T08:07:16.353Z,99.90
2018-09-20T08:09:44.829Z,99.90
2018-09-20T08:12:13.278Z,99.90
2018-09-20T08:14:41.776Z,99.90
2018-09-20T08:17:10.325Z,99.90
2018-09-20T08:19:38.833Z,99.90
2018-09-20T08:22:07.333Z,99.90
2018-09-20T08:24:35.783Z,99.90
2018-09-20T08:27:04.237Z,99.90
2018-09-20T08:29:32.644Z,99.90
2018-09-20T08:32:01.097Z,99.90
2018-09-20T08:34:29.522Z,99.90
2018-09-20T08:36:57.959Z,99.90
2018-09-20T08:39:26.365Z,99.90
2018-09-20T08:41:54.841Z,99.90
2018-09-20T08:44:23.261Z,99.90
2018-09-20T08:46:51.718Z,99.90
2018-09-20T08:49:20.172Z,99.90
2018-09-20T08:51:48.621Z,99.90
2018-09-20T08:54:17.053Z,99.90
2018-09-20T08:56:45.511Z,99.90
2018-09-20T08:59:13.953Z,99.90
2018-09-20T09:01:42.385Z,99.90
2018-09-20T09:04:10.862Z,99.90
2018-09-20T09:06:39.273Z,99.90
2018-09-20T09:09:09.410Z,99.90
2018-09-20T09:11:38.600Z,99.90
2018-09-20T09:14:07.487Z,99.90
2018-09-20T09:16:35.936Z,99.90
2018-09-20T09:19:04.457Z,99.90
2018-09-20T09:21:32.900Z,99.90
2018-09-20T09:24:01.320Z,99.90
2018-09-20T09:26:29.789Z,99.90
2018-09-20T09:28:58.233Z,99.90
2018-09-20T09:31:26.688Z,99.90
2018-09-20T09:33:55.104Z,99.90
2018-09-20T09:36:23.620Z,99.90
2018-09-20T09:38:52.095Z,99.90
2018-09-20T09:41:20.512Z,99.90
2018-09-20T09:43:48.929Z,99.90
2018-09-20T09:46:17.414Z,99.90
2018-09-20T09:48:45.833Z,99.90
2018-09-20T09:51:14.326Z,99.90
2018-09-20T09:53:42.793Z,99.90
2018-09-20T09:56:11.377Z,99.90
2018-09-20T09:58:39.784Z,99.90
2018-09-20T10:01:08.248Z,99.90
2018-09-20T10:03:36.733Z,99.90
2018-09-20T10:06:05.177Z,99.90
2018-09-20T10:08:33.598Z,99.90
2018-09-20T10:11:02.028Z,99.90
2018-09-20T10:13:30.518Z,99.90
2018-09-20T10:15:58.980Z,99.90
2018-09-20T10:18:27.410Z,99.90
2018-09-20T10:20:55.816Z,99.90
2018-09-20T10:23:24.256Z,99.90
2018-09-20T10:25:52.694Z,99.90
2018-09-20T10:28:21.098Z,99.90
2018-09-20T10:30:49.537Z,99.90
2018-09-20T10:33:17.940Z,99.90
2018-09-20T10:35:46.397Z,99.90
2018-09-20T10:38:14.904Z,99.90
2018-09-20T10:40:43.351Z,99.90
2018-09-20T10:43:11.767Z,99.90
2018-09-20T10:45:40.215Z,99.90
2018-09-20T10:48:08.641Z,99.90
2018-09-20T10:50:37.096Z,99.90
2018-09-20T10:53:05.500Z,99.90
2018-09-20T10:55:33.930Z,99.90
2018-09-20T10:58:02.350Z,99.90
2018-09-20T11:00:30.885Z,99.50
2018-09-20T11:02:59.392Z,99.40
2018-09-20T11:05:27.817Z,98.90
2018-09-20T11:07:56.241Z,98.50
2018-09-20T11:10:24.766Z,98.80
2018-09-20T11:12:53.272Z,98.30
2018-09-20T11:15:21.692Z,98.40
2018-09-20T11:17:50.143Z,98.00
2018-09-20T11:20:18.610Z,97.70
2018-09-20T11:22:47.040Z,97.50
2018-09-20T11:25:15.488Z,97.70
2018-09-20T11:27:43.935Z,97.60
2018-09-20T11:30:12.384Z,97.50
2018-09-20T11:32:40.809Z,97.50
2018-09-20T11:35:09.269Z,97.60
2018-09-20T11:37:37.686Z,97.80
2018-09-20T11:40:06.220Z,97.90
2018-09-20T11:42:34.633Z,98.00
2018-09-20T11:45:03.073Z,98.30
2018-09-20T11:47:31.492Z,98.40
2018-09-20T11:50:00.014Z,97.60
2018-09-20T11:52:28.464Z,97.50
2018-09-20T11:54:56.906Z,97.50
2018-09-20T11:57:25.325Z,97.60
2018-09-20T11:59:53.728Z,97.00
2018-09-20T12:02:22.141Z,97.20
2018-09-20T12:04:50.583Z,96.80
2018-09-20T12:07:19.035Z,96.50
2018-09-20T12:09:47.469Z,96.50
2018-09-20T12:12:15.905Z,96.30
2018-09-20T12:14:44.302Z,95.80
2018-09-20T12:17:12.740Z,95.30
2018-09-20T12:19:41.153Z,95.50
2018-09-20T12:22:09.905Z,94.80
2018-09-20T12:24:38.488Z,94.20
2018-09-20T12:27:06.989Z,93.90
2018-09-20T12:29:35.512Z,93.80
2018-09-20T12:32:04.008Z,93.80
2018-09-20T12:34:32.449Z,93.70
2018-09-20T12:37:00.995Z,93.70
2018-09-20T12:39:29.525Z,92.50
2018-09-20T12:41:58.014Z,92.90
2018-09-20T12:44:26.549Z,92.30
2018-09-20T12:46:55.073Z,91.80
2018-09-20T12:49:23.860Z,91.60
2018-09-20T12:51:52.326Z,91.80
2018-09-20T12:54:20.884Z,91.30
2018-09-20T12:56:49.321Z,91.20
2018-09-20T12:59:17.836Z,90.20
2018-09-20T13:01:46.368Z,89.90
2018-09-20T13:04:14.982Z,87.80
2018-09-20T13:06:43.492Z,87.00
2018-09-20T13:09:11.946Z,86.10
2018-09-20T13:11:40.446Z,86.00
2018-09-20T13:14:09.026Z,84.60
2018-09-20T13:16:37.569Z,84.80
2018-09-20T13:19:06.066Z,84.00
2018-09-20T13:21:34.534Z,83.20
2018-09-20T13:24:02.981Z,81.30
2018-09-20T13:26:31.491Z,80.10
2018-09-20T13:28:59.969Z,78.30
2018-09-20T13:31:28.473Z,76.90
2018-09-20T13:33:56.927Z,77.00
2018-09-20T13:36:25.458Z,75.10
2018-09-20T13:38:53.950Z,73.30
2018-09-20T13:41:22.381Z,72.00
2018-09-20T13:43:50.849Z,71.30
2018-09-20T13:46:19.307Z,71.30
2018-09-20T13:48:47.924Z,70.90
2018-09-20T13:51:16.509Z,67.90
2018-09-20T13:53:45.062Z,65.80
2018-09-20T13:56:13.701Z,66.00
2018-09-20T13:58:46.408Z,64.60
2018-09-20T14:01:14.944Z,63.50
2018-09-20T14:03:43.476Z,63.80
2018-09-20T14:06:11.990Z,62.20
2018-09-20T14:08:40.502Z,62.70
2018-09-20T14:11:09.129Z,62.30
2018-09-20T14:13:37.560Z,63.80
2018-09-20T14:16:06.073Z,65.10
2018-09-20T14:18:35.205Z,65.80
2018-09-20T14:21:03.751Z,65.50
2018-09-20T14:23:32.271Z,66.20
2018-09-20T14:26:00.784Z,68.10
2018-09-20T14:28:29.307Z,66.50
2018-09-20T14:30:57.773Z,67.70
2018-09-20T14:33:26.230Z,66.50
2018-09-20T14:35:54.725Z,67.00
2018-09-20T14:38:23.193Z,67.80
2018-09-20T14:40:51.764Z,67.30
2018-09-20T14:43:21.184Z,68.10
2018-09-20T14:45:49.613Z,68.80
2018-09-20T14:48:18.055Z,69.20
2018-09-20T14:50:46.565Z,69.50
2018-09-20T14:53:15.005Z,69.30
2018-09-20T14:55:43.432Z,69.70
2018-09-20T14:58:12.147Z,70.30
2018-09-20T15:00:40.760Z,69.40
2018-09-20T15:03:09.298Z,70.70
2018-09-20T15:05:37.909Z,70.30
2018-09-20T15:08:06.538Z,69.50
2018-09-20T15:10:35.024Z,69.20
2018-09-20T15:13:03.510Z,68.80
2018-09-20T15:15:31.943Z,70.20
2018-09-20T15:18:00.429Z,71.50
2018-09-20T15:20:28.957Z,69.80
2018-09-20T15:22:57.463Z,69.40
2018-09-20T15:25:25.920Z,69.80
2018-09-20T15:27:54.345Z,69.60
2018-09-20T15:30:22.744Z,70.00
2018-09-20T15:32:51.226Z,69.80
2018-09-20T15:35:19.716Z,69.90
2018-09-20T15:37:48.233Z,70.00
2018-09-20T15:40:16.847Z,70.60
2018-09-20T15:42:45.403Z,71.00
2018-09-20T15:45:13.925Z,70.80
2018-09-20T15:47:42.433Z,71.20
2018-09-20T15:50:10.900Z,71.30
2018-09-20T15:52:39.467Z,71.00
2018-09-20T15:55:07.944Z,70.60
2018-09-20T15:57:36.558Z,71.30
2018-09-20T16:00:05.797Z,71.60
2018-09-20T16:02:34.268Z,71.30
2018-09-20T16:05:02.747Z,71.80
2018-09-20T16:07:31.276Z,72.50
2018-09-20T16:09:59.961Z,72.30
2018-09-20T16:12:28.617Z,72.90
2018-09-20T16:14:57.183Z,72.20
2018-09-20T16:17:25.669Z,73.00
2018-09-20T16:19:54.663Z,70.30
2018-09-20T16:22:23.202Z,70.20
2018-09-20T16:24:51.729Z,69.40
2018-09-20T16:27:20.314Z,70.80
2018-09-20T16:30:01.090Z,70.60
2018-09-20T16:32:39.472Z,70.00
2018-09-20T16:35:19.728Z,69.70
2018-09-20T16:39:00.362Z,70.00
2018-09-20T16:41:34.426Z,71.30
2018-09-20T16:44:02.997Z,72.90
2018-09-20T16:46:31.480Z,72.90
2018-09-20T16:49:00.034Z,74.50
2018-09-20T16:51:28.596Z,75.20
2018-09-20T16:53:57.059Z,74.70
2018-09-20T16:56:25.538Z,75.30
2018-09-20T16:58:54.823Z,75.80
2018-09-20T17:01:23.709Z,76.10
2018-09-20T17:03:52.118Z,76.40
2018-09-20T17:06:21.094Z,75.70
2018-09-20T17:08:50.642Z,76.00
2018-09-20T17:11:19.141Z,75.80
2018-09-20T17:13:48.038Z,75.50
2018-09-20T17:16:16.568Z,75.70
2018-09-20T17:18:45.097Z,75.50
2018-09-20T17:21:13.584Z,76.00
2018-09-20T17:23:42.051Z,76.50
2018-09-20T17:26:10.553Z,77.00
2018-09-20T17:28:38.965Z,78.90
2018-09-20T17:31:07.466Z,77.70
2018-09-20T17:33:36.087Z,78.80
2018-09-20T17:36:05.041Z,78.70
2018-09-20T17:38:34.553Z,78.20
2018-09-20T17:41:16.243Z,78.50
2018-09-20T17:43:49.149Z,79.80
2018-09-20T17:46:17.587Z,78.90
2018-09-20T17:48:46.173Z,79.90
2018-09-20T17:51:16.069Z,79.60
2018-09-20T17:53:45.128Z,79.60
2018-09-20T17:56:14.233Z,79.50
2018-09-20T17:58:43.707Z,79.20
2018-09-20T18:01:12.176Z,79.70
2018-09-20T18:03:40.672Z,79.70
2018-09-20T18:06:09.088Z,79.70
2018-09-20T18:08:37.636Z,80.00
2018-09-20T18:11:06.733Z,80.40
2018-09-20T18:13:35.217Z,80.60
2018-09-20T18:16:06.307Z,80.50
2018-09-20T18:18:35.066Z,81.00
2018-09-20T18:21:03.553Z,80.90
2018-09-20T18:23:32.905Z,81.00
2018-09-20T18:26:01.460Z,81.60
2018-09-20T18:28:30.195Z,81.60
2018-09-20T18:30:58.743Z,81.70
2018-09-20T18:33:28.766Z,82.10
2018-09-20T18:35:57.633Z,82.40
2018-09-20T18:38:26.849Z,82.30
2018-09-20T18:40:55.294Z,82.70
2018-09-20T18:43:23.783Z,82.30
2018-09-20T18:45:52.201Z,82.70
2018-09-20T18:48:20.647Z,82.80
2018-09-20T18:50:49.197Z,82.80
2018-09-20T18:53:17.625Z,82.90
2018-09-20T18:55:46.090Z,83.00
2018-09-20T18:58:14.621Z,83.60
2018-09-20T19:00:45.557Z,84.20
2018-09-20T19:03:15.565Z,84.20
2018-09-20T19:05:44.069Z,84.00
2018-09-20T19:08:12.779Z,84.70
2018-09-20T19:10:42.282Z,84.70
2018-09-20T19:13:10.792Z,85.10
2018-09-20T19:15:39.211Z,86.00
2018-09-20T19:18:07.660Z,86.10
2018-09-20T19:20:36.145Z,86.50
2018-09-20T19:23:04.591Z,86.90
2018-09-20T19:25:33.029Z,87.00
2018-09-20T19:28:01.498Z,87.70
2018-09-20T19:30:29.937Z,87.60
2018-09-20T19:32:58.337Z,88.00
2018-09-20T19:35:26.785Z,88.00
2018-09-20T19:37:55.232Z,88.60
2018-09-20T19:40:23.660Z,88.80
2018-09-20T19:42:52.196Z,89.00
2018-09-20T19:45:20.656Z,90.10
2018-09-20T19:47:49.152Z,90.00
2018-09-20T19:50:17.962Z,90.10
2018-09-20T19:52:46.511Z,90.20
2018-09-20T19:55:14.935Z,90.30
2018-09-20T19:57:43.364Z,90.40
2018-09-20T20:00:11.845Z,90.60
2018-09-20T20:02:40.282Z,90.80
2018-09-20T20:05:08.768Z,90.90
2018-09-20T20:07:37.684Z,91.50
2018-09-20T20:10:06.270Z,91.50
2018-09-20T20:12:34.821Z,91.90
2018-09-20T20:15:03.388Z,91.60
2018-09-20T20:17:31.834Z,91.70
2018-09-20T20:20:00.297Z,91.70
2018-09-20T20:22:29.070Z,92.20
2018-09-20T20:24:57.543Z,92.20
2018-09-20T20:27:25.983Z,92.20
2018-09-20T20:29:54.417Z,92.60
2018-09-20T20:32:22.941Z,92.80
2018-09-20T20:34:51.454Z,93.20
2018-09-20T20:37:19.897Z,93.30
2018-09-20T20:39:48.377Z,93.60
2018-09-20T20:42:16.805Z,94.00
2018-09-20T20:44:46.323Z,94.10
2018-09-20T20:47:14.804Z,94.70
2018-09-20T20:49:44.201Z,94.60
2018-09-20T20:52:12.693Z,94.70
2018-09-20T20:54:41.127Z,94.90
2018-09-20T20:57:09.553Z,95.20
2018-09-20T20:59:38.247Z,95.20
2018-09-20T21:02:06.856Z,95.30
2018-09-20T21:04:35.293Z,95.30
2018-09-20T21:07:03.760Z,95.60
2018-09-20T21:09:32.206Z,95.90
2018-09-20T21:12:00.640Z,96.00
2018-09-20T21:14:29.147Z,96.10
2018-09-20T21:16:57.581Z,96.60
2018-09-20T21:19:26.023Z,96.50
2018-09-20T21:21:54.462Z,96.80
2018-09-20T21:24:23.067Z,96.80
2018-09-20T21:26:52.149Z,96.90
2018-09-20T21:29:20.729Z,97.30
2018-09-20T21:31:49.175Z,97.40
2018-09-20T21:34:17.622Z,97.70
2018-09-20T21:36:46.123Z,97.70
2018-09-20T21:39:14.528Z,97.90
2018-09-20T21:41:42.949Z,97.90
2018-09-20T21:44:11.413Z,98.30
2018-09-20T21:46:39.844Z,98.20
2018-09-20T21:49:08.260Z,98.50
2018-09-20T21:51:36.729Z,98.60
2018-09-20T21:54:05.285Z,98.90
2018-09-20T21:56:33.774Z,98.90
2018-09-20T21:59:02.213Z,99.20
2018-09-20T22:01:36.113Z,99.30
2018-09-20T22:04:05.222Z,99.50
2018-09-20T22:06:35.002Z,99.90
2018-09-20T22:09:04.938Z,99.90
2018-09-20T22:11:33.384Z,99.90
2018-09-20T22:14:01.909Z,99.90
2018-09-20T22:16:30.320Z,99.90
2018-09-20T22:18:58.747Z,99.90
2018-09-20T22:21:27.168Z,99.90
2018-09-20T22:23:55.605Z,99.90
2018-09-20T22:26:24.436Z,99.90
2018-09-20T22:28:52.849Z,99.90
2018-09-20T22:31:21.684Z,99.90
2018-09-20T22:33:50.690Z,99.90
2018-09-20T22:36:19.089Z,99.90
2018-09-20T22:38:48.093Z,99.90
2018-09-20T22:41:16.560Z,99.90
2018-09-20T22:43:44.970Z,99.90
2018-09-20T22:46:13.448Z,99.90
2018-09-20T22:48:41.861Z,99.90
2018-09-20T22:51:10.912Z,99.90
2018-09-20T22:53:39.558Z,99.90
2018-09-20T22:56:08.001Z,99.90
2018-09-20T22:58:36.413Z,99.90
2018-09-20T23:01:04.828Z,99.90
2018-09-20T23:03:33.252Z,99.90
2018-09-20T23:06:01.672Z,99.90
2018-09-20T23:08:30.074Z,99.90
2018-09-20T23:10:58.505Z,99.90
2018-09-20T23:13:26.925Z,99.90
2018-09-20T23:15:55.397Z,99.90
2018-09-20T23:18:23.812Z,99.90
2018-09-20T23:20:52.214Z,99.90
2018-09-20T23:23:20.662Z,99.90
2018-09-20T23:25:49.084Z,99.90
2018-09-20T23:28:17.507Z,99.90
2018-09-20T23:30:45.899Z,99.90
2018-09-20T23:33:14.323Z,99.90
2018-09-20T23:35:42.726Z,99.90
2018-09-20T23:38:11.180Z,99.90
2018-09-20T23:40:39.605Z,99.90
2018-09-20T23:43:08.044Z,99.90
2018-09-20T23:45:36.501Z,99.90
2018-09-20T23:48:04.905Z,99.90
2018-09-20T23:50:33.422Z,99.90
2018-09-20T23:53:01.865Z,99.90
2018-09-20T23:55:30.313Z,99.90
2018-09-20T23:57:58.712Z,99.90
